createdAt,value
2022-09-12T00:01:28.086Z,101645.13
2022-09-12T00:04:00.228Z,101644.34
2022-09-12T00:06:29.588Z,101643.56
2022-09-12T00:09:04.706Z,101638.38
2022-09-12T00:11:32.201Z,101642.88
2022-09-12T00:14:02.486Z,101628.91
2022-09-12T00:16:33.174Z,101637.81
2022-09-12T00:19:01.917Z,101636.16
2022-09-12T00:21:29.760Z,101636.19
2022-09-12T00:23:57.223Z,101628.31
2022-09-12T00:26:24.665Z,101634.56
2022-09-12T00:28:52.675Z,101628.47
2022-09-12T00:31:25.274Z,101625.94
2022-09-12T00:33:56.289Z,101628.63
2022-09-12T00:36:25.975Z,101619.00
2022-09-12T00:38:54.643Z,101620.81
2022-09-12T00:41:32.346Z,101619.06
2022-09-12T00:44:24.613Z,101618.19
2022-09-12T00:46:54.543Z,101611.22
2022-09-12T00:49:26.762Z,101612.13
2022-09-12T00:52:07.202Z,101602.47
2022-09-12T00:54:55.366Z,101612.22
2022-09-12T00:57:29.777Z,101600.00
2022-09-12T01:00:05.803Z,101607.91
2022-09-12T01:02:33.200Z,101605.44
2022-09-12T01:05:00.691Z,101595.81
2022-09-12T01:07:28.911Z,101591.47
2022-09-12T01:09:56.465Z,101587.16
2022-09-12T01:12:24.459Z,101592.44
2022-09-12T01:14:52.006Z,101586.34
2022-09-12T01:17:19.411Z,101584.63
2022-09-12T01:19:52.702Z,101583.69
2022-09-12T01:23:03.110Z,101581.06
2022-09-12T01:26:13.463Z,101572.31
2022-09-12T01:29:00.577Z,101582.03
2022-09-12T01:31:42.131Z,101571.50
2022-09-12T01:34:56.811Z,101572.41
2022-09-12T01:37:51.512Z,101577.72
2022-09-12T01:40:26.373Z,101580.34
2022-09-12T01:43:19.258Z,101578.56
2022-09-12T01:46:03.396Z,101579.53
2022-09-12T01:48:44.189Z,101581.31
2022-09-12T01:51:27.636Z,101575.19
2022-09-12T01:54:22.853Z,101571.72
2022-09-12T01:56:58.597Z,101562.91
2022-09-12T01:59:41.356Z,101560.22
2022-09-12T02:02:27.803Z,101560.22
2022-09-12T02:05:13.694Z,101556.72
2022-09-12T02:07:51.811Z,101562.91
2022-09-12T02:10:32.518Z,101549.78
2022-09-12T02:13:13.171Z,101549.81
2022-09-12T02:15:51.352Z,101544.63
2022-09-12T02:18:21.145Z,101536.91
2022-09-12T02:20:51.585Z,101530.97
2022-09-12T02:23:31.883Z,101529.41
2022-09-12T02:26:10.307Z,101542.66
2022-09-12T02:28:43.060Z,101529.50
2022-09-12T02:31:48.406Z,101528.59
2022-09-12T02:34:44.635Z,101518.94
2022-09-12T02:37:37.027Z,101514.66
2022-09-12T02:40:06.998Z,101527.84
2022-09-12T02:42:36.703Z,101524.34
2022-09-12T02:45:04.965Z,101525.19
2022-09-12T02:47:52.999Z,101532.22
2022-09-12T02:50:21.873Z,101523.47
2022-09-12T02:52:53.723Z,101533.09
2022-09-12T02:55:21.545Z,101528.75
2022-09-12T02:57:48.961Z,101534.88
2022-09-12T03:00:16.504Z,101537.56
2022-09-12T03:03:02.440Z,101533.16
2022-09-12T03:05:59.056Z,101526.09
2022-09-12T03:09:05.760Z,101519.91
2022-09-12T03:11:47.675Z,101517.25
2022-09-12T03:14:46.718Z,101516.41
2022-09-12T03:17:37.375Z,101520.84
2022-09-12T03:20:18.972Z,101516.44
2022-09-12T03:23:00.967Z,101512.97
2022-09-12T03:25:50.013Z,101505.91
2022-09-12T03:28:21.194Z,101507.69
2022-09-12T03:30:51.485Z,101507.72
2022-09-12T03:33:23.959Z,101501.59
2022-09-12T03:35:53.226Z,101499.88
2022-09-12T03:38:20.836Z,101500.75
2022-09-12T03:40:52.714Z,101497.22
2022-09-12T03:43:22.159Z,101493.69
2022-09-12T03:45:53.429Z,101493.69
2022-09-12T03:48:22.089Z,101499.81
2022-09-12T03:50:49.486Z,101494.59
2022-09-12T03:53:17.581Z,101491.03
2022-09-12T03:55:45.401Z,101487.53
2022-09-12T03:58:12.779Z,101492.81
2022-09-12T04:00:40.919Z,101488.41
2022-09-12T04:03:09.184Z,101484.91
2022-09-12T04:05:36.784Z,101486.63
2022-09-12T04:08:04.174Z,101483.09
2022-09-12T04:10:32.437Z,101483.09
2022-09-12T04:12:59.826Z,101481.34
2022-09-12T04:15:27.216Z,101473.41
2022-09-12T04:17:54.708Z,101478.66
2022-09-12T04:20:22.239Z,101487.41
2022-09-12T04:22:49.604Z,101478.63
2022-09-12T04:25:17.307Z,101474.19
2022-09-12T04:27:44.715Z,101480.34
2022-09-12T04:30:12.803Z,101470.66
2022-09-12T04:32:41.350Z,101468.84
2022-09-12T04:35:08.974Z,101472.41
2022-09-12T04:37:36.435Z,101471.56
2022-09-12T04:40:04.170Z,101475.88
2022-09-12T04:42:31.632Z,101472.38
2022-09-12T04:44:59.093Z,101475.88
2022-09-12T04:47:26.482Z,101475.88
2022-09-12T04:49:54.028Z,101478.50
2022-09-12T04:52:21.476Z,101477.56
2022-09-12T04:54:48.903Z,101469.66
2022-09-12T04:57:16.550Z,101473.09
2022-09-12T04:59:44.034Z,101467.81
2022-09-12T05:02:11.498Z,101465.16
2022-09-12T05:04:38.902Z,101458.13
2022-09-12T05:07:06.563Z,101459.94
2022-09-12T05:09:33.959Z,101467.09
2022-09-12T05:12:05.488Z,101463.66
2022-09-12T05:14:34.921Z,101466.28
2022-09-12T05:17:04.607Z,101466.19
2022-09-12T05:19:32.871Z,101467.91
2022-09-12T05:22:00.601Z,101468.69
2022-09-12T05:24:28.875Z,101469.47
2022-09-12T05:26:56.368Z,101471.13
2022-09-12T05:29:25.160Z,101478.09
2022-09-12T05:31:52.904Z,101475.31
2022-09-12T05:34:20.915Z,101473.44
2022-09-12T05:36:49.077Z,101469.81
2022-09-12T05:39:16.753Z,101472.34
2022-09-12T05:41:44.412Z,101470.50
2022-09-12T05:44:14.248Z,101477.47
2022-09-12T05:46:46.594Z,101472.94
2022-09-12T05:49:14.545Z,101482.53
2022-09-12T05:51:45.818Z,101473.56
2022-09-12T05:54:19.415Z,101477.88
2022-09-12T05:56:48.985Z,101478.59
2022-09-12T05:59:20.381Z,101474.09
2022-09-12T06:01:48.905Z,101474.00
2022-09-12T06:04:17.209Z,101478.25
2022-09-12T06:06:45.876Z,101480.75
2022-09-12T06:09:16.519Z,101491.25
2022-09-12T06:11:46.286Z,101490.25
2022-09-12T06:14:16.691Z,101486.59
2022-09-12T06:16:44.515Z,101481.16
2022-09-12T06:19:21.742Z,101480.97
2022-09-12T06:21:49.897Z,101493.19
2022-09-12T06:24:19.613Z,101486.84
2022-09-12T06:26:48.762Z,101483.19
2022-09-12T06:29:16.358Z,101484.78
2022-09-12T06:31:46.064Z,101489.94
2022-09-12T06:34:15.512Z,101489.88
2022-09-12T06:36:46.706Z,101489.72
2022-09-12T06:39:18.326Z,101487.84
2022-09-12T06:41:46.489Z,101489.63
2022-09-12T06:44:23.373Z,101491.31
2022-09-12T06:46:51.412Z,101485.03
2022-09-12T06:49:18.911Z,101479.63
2022-09-12T06:51:46.309Z,101473.41
2022-09-12T06:54:16.982Z,101476.91
2022-09-12T06:56:45.815Z,101479.44
2022-09-12T06:59:13.379Z,101479.41
2022-09-12T07:01:41.624Z,101476.72
2022-09-12T07:04:10.037Z,101477.56
2022-09-12T07:06:41.549Z,101472.19
2022-09-12T07:09:13.682Z,101476.50
2022-09-12T07:11:43.260Z,101472.66
2022-09-12T07:14:14.227Z,101479.06
2022-09-12T07:16:42.873Z,101471.47
2022-09-12T07:19:10.825Z,101468.91
2022-09-12T07:21:40.457Z,101474.31
2022-09-12T07:24:11.447Z,101468.41
2022-09-12T07:26:41.886Z,101474.81
2022-09-12T07:32:05.542Z,101468.53
2022-09-12T07:34:34.248Z,101459.13
2022-09-12T07:37:01.642Z,101458.44
2022-09-12T07:39:29.003Z,101458.69
2022-09-12T07:41:57.313Z,101467.25
2022-09-12T07:44:26.884Z,101457.41
2022-09-12T07:46:54.248Z,101464.72
2022-09-12T07:49:21.750Z,101459.84
2022-09-12T07:51:49.134Z,101461.97
2022-09-12T07:54:17.572Z,101462.31
2022-09-12T07:56:45.822Z,101465.97
2022-09-12T07:59:13.583Z,101473.16
2022-09-12T08:01:45.216Z,101470.59
2022-09-12T08:04:12.593Z,101469.22
2022-09-12T08:06:40.050Z,101472.06
2022-09-12T08:09:08.046Z,101474.72
2022-09-12T08:11:35.550Z,101471.28
2022-09-12T08:14:05.520Z,101474.06
2022-09-12T08:16:35.638Z,101470.75
2022-09-12T08:19:04.403Z,101468.19
2022-09-12T08:21:33.525Z,101470.19
2022-09-12T08:24:06.698Z,101480.09
2022-09-12T08:26:34.847Z,101476.69
2022-09-12T08:29:02.452Z,101474.09
2022-09-12T08:31:31.872Z,101477.78
2022-09-12T08:34:00.788Z,101472.56
2022-09-12T08:36:29.631Z,101477.06
2022-09-12T08:39:01.336Z,101475.63
2022-09-12T08:41:49.234Z,101479.50
2022-09-12T08:44:43.833Z,101480.91
2022-09-12T08:47:39.166Z,101480.38
2022-09-12T08:50:12.126Z,101471.25
2022-09-12T08:52:51.859Z,101478.72
2022-09-12T08:55:59.474Z,101471.81
2022-09-12T08:58:29.544Z,101472.16
2022-09-12T09:01:28.890Z,101472.28
2022-09-12T09:04:14.855Z,101478.66
2022-09-12T09:06:54.422Z,101473.44
2022-09-12T09:09:55.450Z,101470.91
2022-09-12T09:12:36.465Z,101461.22
2022-09-12T09:15:57.534Z,101468.31
2022-09-12T09:18:33.670Z,101459.47
2022-09-12T09:21:23.745Z,101462.91
2022-09-12T09:24:05.085Z,101465.69
2022-09-12T09:27:36.768Z,101461.28
2022-09-12T09:30:03.822Z,101463.13
2022-09-12T09:32:40.967Z,101457.00
2022-09-12T09:35:37.877Z,101454.47
2022-09-12T09:38:47.250Z,101449.28
2022-09-12T09:41:34.664Z,101449.63
2022-09-12T09:44:03.207Z,101447.19
2022-09-12T09:46:32.199Z,101454.63
2022-09-12T09:49:05.519Z,101445.97
2022-09-12T09:51:39.647Z,101439.25
2022-09-12T09:54:21.221Z,101435.94
2022-09-12T09:56:48.936Z,101437.25
2022-09-12T09:59:31.887Z,101433.09
2022-09-12T10:02:14.444Z,101428.16
2022-09-12T10:04:55.511Z,101424.28
2022-09-12T10:07:25.897Z,101418.50
2022-09-12T10:10:23.115Z,101422.25
2022-09-12T10:12:51.442Z,101406.28
2022-09-12T10:15:26.618Z,101406.50
2022-09-12T10:17:57.076Z,101407.47
2022-09-12T10:20:45.475Z,101398.53
2022-09-12T10:23:19.144Z,101398.22
2022-09-12T10:25:53.685Z,101399.72
2022-09-12T10:28:31.844Z,101400.09
2022-09-12T10:31:01.499Z,101396.13
2022-09-12T10:33:29.946Z,101385.78
2022-09-12T10:35:57.892Z,101385.34
2022-09-12T10:38:32.207Z,101381.00
2022-09-12T10:41:06.590Z,101381.28
2022-09-12T10:43:33.969Z,101380.00
2022-09-12T10:46:16.457Z,101375.00
2022-09-12T10:48:45.825Z,101369.91
2022-09-12T10:51:28.869Z,101368.25
2022-09-12T10:54:00.578Z,101367.78
2022-09-12T10:56:36.039Z,101355.44
2022-09-12T10:59:35.967Z,101362.94
2022-09-12T11:02:30.989Z,101358.28
2022-09-12T11:05:12.802Z,101357.56
2022-09-12T11:07:50.864Z,101361.38
2022-09-12T11:10:51.849Z,101356.34
2022-09-12T11:13:51.274Z,101357.06
2022-09-12T11:16:55.402Z,101341.41
2022-09-12T11:19:54.812Z,101334.84
2022-09-12T11:22:47.641Z,101335.81
2022-09-12T11:25:41.340Z,101329.97
2022-09-12T11:28:36.034Z,101324.47
2022-09-12T11:31:46.173Z,101324.97
2022-09-12T11:34:29.677Z,101327.06
2022-09-12T11:37:24.902Z,101323.38
2022-09-12T11:39:55.990Z,101329.41
2022-09-12T11:42:31.679Z,101326.09
2022-09-12T11:45:28.942Z,101327.06
2022-09-12T11:48:07.143Z,101329.63
2022-09-12T11:50:34.622Z,101319.47
2022-09-12T11:53:22.730Z,101331.44
2022-09-12T11:56:04.582Z,101322.03
2022-09-12T11:58:32.187Z,101332.19
2022-09-12T12:01:22.941Z,101330.69
2022-09-12T12:03:52.722Z,101327.75
2022-09-12T12:06:31.438Z,101327.97
2022-09-12T12:08:59.404Z,101332.91
2022-09-12T12:11:37.146Z,101338.00
2022-09-12T12:14:16.143Z,101332.38
2022-09-12T12:16:44.352Z,101331.88
2022-09-12T12:19:14.374Z,101327.69
2022-09-12T12:21:50.862Z,101325.47
2022-09-12T12:24:25.587Z,101328.91
2022-09-12T12:26:53.007Z,101318.25
2022-09-12T12:29:43.661Z,101312.22
2022-09-12T12:32:11.515Z,101316.16
2022-09-12T12:34:42.217Z,101309.06
2022-09-12T12:37:18.596Z,101306.44
2022-09-12T12:39:47.775Z,101306.94
2022-09-12T12:42:36.264Z,101297.94
2022-09-12T12:45:06.669Z,101309.63
2022-09-12T12:47:49.484Z,101301.19
2022-09-12T12:50:16.763Z,101303.47
2022-09-12T12:52:51.867Z,101294.00
2022-09-12T12:55:33.874Z,101286.47
2022-09-12T12:58:04.603Z,101281.13
2022-09-12T13:00:40.278Z,101279.53
2022-09-12T13:03:29.463Z,101275.38
2022-09-12T13:25:37.264Z,101243.59
2022-09-12T13:28:15.289Z,101238.63
2022-09-12T13:30:47.335Z,101237.66
2022-09-12T13:33:45.181Z,101250.59
2022-09-12T13:36:27.883Z,101240.13
2022-09-12T13:48:40.590Z,101228.19
2022-09-12T13:51:25.927Z,101215.97
2022-09-12T14:02:41.599Z,101213.63
2022-09-12T14:05:22.255Z,101212.38
2022-09-12T14:08:02.796Z,101212.06
2022-09-12T14:23:01.335Z,101199.38
2022-09-12T14:25:44.292Z,101194.56
2022-09-12T14:28:23.640Z,101189.31
2022-09-12T14:34:16.139Z,101188.47
2022-09-12T14:36:48.770Z,101180.25
2022-09-12T14:39:32.739Z,101181.81
2022-09-12T14:42:36.682Z,101179.16
2022-09-12T14:45:33.826Z,101184.19
2022-09-12T14:48:06.558Z,101181.63
2022-09-12T14:51:08.790Z,101179.25
2022-09-12T14:54:05.272Z,101177.94
2022-09-12T15:03:38.448Z,101147.94
2022-09-12T15:06:08.039Z,101144.66
2022-09-12T15:08:35.659Z,101145.06
2022-09-12T15:11:07.233Z,101146.59
2022-09-12T15:13:41.745Z,101146.31
2022-09-12T15:16:12.160Z,101135.94
2022-09-12T15:18:39.860Z,101150.41
2022-09-12T15:21:13.865Z,101143.31
2022-09-12T15:23:47.966Z,101139.06
2022-09-12T15:26:27.401Z,101148.13
2022-09-12T15:28:54.766Z,101135.22
2022-09-12T15:31:27.387Z,101139.06
2022-09-12T15:33:57.356Z,101134.97
2022-09-12T15:36:26.404Z,101141.53
2022-09-12T15:38:53.798Z,101141.38
2022-09-12T15:41:36.765Z,101133.28
2022-09-12T15:44:08.212Z,101135.13
2022-09-12T15:46:36.025Z,101119.78
2022-09-12T15:49:03.600Z,101122.94
2022-09-12T15:51:31.036Z,101108.31
2022-09-12T15:54:04.303Z,101111.31
2022-09-12T15:56:31.808Z,101112.50
2022-09-12T15:59:00.192Z,101112.19
2022-09-12T16:01:29.240Z,101113.47
2022-09-12T16:03:57.455Z,101115.91
2022-09-12T16:06:25.267Z,101112.34
2022-09-12T16:08:52.817Z,101103.84
2022-09-12T16:11:25.029Z,101100.84
2022-09-12T16:13:54.191Z,101099.69
2022-09-12T16:16:21.963Z,101094.44
2022-09-12T16:18:49.686Z,101094.31
2022-09-12T16:21:17.180Z,101092.88
2022-09-12T16:23:46.601Z,101093.16
2022-09-12T16:26:14.921Z,101089.16
2022-09-12T16:28:43.236Z,101081.78
2022-09-12T16:31:14.034Z,101081.19
2022-09-12T16:33:41.915Z,101077.22
2022-09-12T16:36:13.330Z,101082.09
2022-09-12T16:38:50.143Z,101085.06
2022-09-12T16:41:21.980Z,101081.38
2022-09-12T16:43:49.425Z,101080.69
2022-09-12T16:46:22.039Z,101071.59
2022-09-12T16:48:54.370Z,101075.72
2022-09-12T16:51:26.788Z,101064.75
2022-09-12T16:53:55.478Z,101071.81
2022-09-12T16:56:24.310Z,101067.81
2022-09-12T16:58:51.965Z,101065.63
2022-09-12T17:01:26.147Z,101062.84
2022-09-12T17:03:56.757Z,101067.88
2022-09-12T17:06:25.955Z,101059.44
2022-09-12T17:08:57.830Z,101056.38
2022-09-12T17:11:30.928Z,101054.00
2022-09-12T17:14:06.219Z,101060.44
2022-09-12T17:16:38.113Z,101066.00
2022-09-12T17:19:06.556Z,101059.34
2022-09-12T17:21:35.463Z,101055.00
2022-09-12T17:24:03.535Z,101053.78
2022-09-12T17:26:31.546Z,101047.47
2022-09-12T17:28:59.109Z,101038.34
2022-09-12T17:31:26.682Z,101034.56
2022-09-12T17:33:58.990Z,101025.53
2022-09-12T17:36:28.531Z,101019.94
2022-09-12T17:38:56.084Z,101011.09
2022-09-12T17:41:28.109Z,101012.81
2022-09-12T17:43:57.928Z,101014.50
2022-09-12T17:46:32.874Z,101025.13
2022-09-12T17:49:02.563Z,101017.78
2022-09-12T17:51:31.463Z,101011.22
2022-09-12T17:54:06.649Z,101007.28
2022-09-12T17:56:36.970Z,101011.69
2022-09-12T17:59:06.632Z,101016.69
2022-09-12T18:01:53.737Z,101019.00
2022-09-12T18:04:21.151Z,101016.16
2022-09-12T18:06:49.193Z,101022.81
2022-09-12T18:09:23.282Z,101019.03
2022-09-12T18:11:52.048Z,101013.50
2022-09-12T18:14:20.795Z,101015.06
2022-09-12T18:16:48.991Z,101012.97
2022-09-12T18:19:16.708Z,101022.47
2022-09-12T18:21:45.523Z,101029.38
2022-09-12T18:24:13.362Z,101025.53
2022-09-12T18:26:43.480Z,101030.88
2022-09-12T18:29:14.284Z,101035.16
2022-09-12T18:31:41.714Z,101032.28
2022-09-12T18:34:13.595Z,101031.16
2022-09-12T18:36:43.457Z,101033.63
2022-09-12T18:39:12.239Z,101037.84
2022-09-12T18:41:40.119Z,101034.88
2022-09-12T18:44:08.290Z,101029.19
2022-09-12T18:46:35.928Z,101032.41
2022-09-12T18:49:04.619Z,101031.25
2022-09-12T18:51:36.274Z,101040.63
2022-09-12T18:54:08.691Z,101032.41
2022-09-12T18:56:38.766Z,101034.78
2022-09-12T18:59:07.625Z,101043.31
2022-09-12T19:01:37.789Z,101043.84
2022-09-12T19:04:07.569Z,101045.34
2022-09-12T19:06:40.618Z,101051.19
2022-09-12T19:09:09.598Z,101049.03
2022-09-12T19:11:40.761Z,101044.09
2022-09-12T19:14:08.367Z,101045.50
2022-09-12T19:16:36.203Z,101048.59
2022-09-12T19:19:04.126Z,101043.72
2022-09-12T19:21:34.203Z,101043.28
2022-09-12T19:24:06.348Z,101034.81
2022-09-12T19:26:34.333Z,101035.22
2022-09-12T19:29:02.980Z,101025.78
2022-09-12T19:31:32.687Z,101022.53
2022-09-12T19:34:06.574Z,101017.59
2022-09-12T19:36:50.407Z,101012.66
2022-09-12T19:39:19.675Z,101017.66
2022-09-12T19:41:48.178Z,101013.69
2022-09-12T19:44:15.886Z,101005.09
2022-09-12T19:46:43.441Z,101001.97
2022-09-12T19:49:12.783Z,101002.28
2022-09-12T19:51:40.576Z,101003.53
2022-09-12T19:54:08.100Z,100995.78
2022-09-12T19:56:35.546Z,100996.16
2022-09-12T19:59:03.114Z,100994.66
2022-09-12T20:01:30.503Z,100998.66
2022-09-12T20:03:59.275Z,101005.25
2022-09-12T20:06:27.364Z,101000.19
2022-09-12T20:08:55.924Z,100999.63
2022-09-12T20:11:25.758Z,101000.00
2022-09-12T20:13:53.506Z,100992.47
2022-09-12T20:16:29.155Z,100985.63
2022-09-12T20:19:00.849Z,100979.81
2022-09-12T20:21:32.194Z,100972.19
2022-09-12T20:24:09.675Z,100974.63
2022-09-12T20:26:37.845Z,100973.13
2022-09-12T20:29:06.592Z,100970.66
2022-09-12T20:31:35.033Z,100965.50
2022-09-12T20:34:02.812Z,100967.38
2022-09-12T20:36:30.413Z,100970.25
2022-09-12T20:39:01.168Z,100974.09
2022-09-12T20:41:33.169Z,100965.56
2022-09-12T20:44:00.838Z,100965.03
2022-09-12T20:46:29.243Z,100972.38
2022-09-12T20:48:58.362Z,100963.69
2022-09-12T20:51:27.233Z,100963.78
2022-09-12T20:53:57.113Z,100953.41
2022-09-12T20:56:26.642Z,100950.84
2022-09-12T20:58:55.501Z,100942.84
2022-09-12T21:01:25.254Z,100946.56
2022-09-12T21:03:53.810Z,100943.13
2022-09-12T21:06:21.786Z,100950.44
2022-09-12T21:08:50.626Z,100948.03
2022-09-12T21:11:20.221Z,100946.59
2022-09-12T21:13:47.858Z,100945.06
2022-09-12T21:16:19.346Z,100943.59
2022-09-12T21:18:47.268Z,100952.97
2022-09-12T21:21:16.299Z,100950.59
2022-09-12T21:23:44.448Z,100963.22
2022-09-12T21:26:12.005Z,100960.81
2022-09-12T21:28:39.425Z,100955.66
2022-09-12T21:31:06.955Z,100945.28
2022-09-12T21:33:34.560Z,100962.22
2022-09-12T21:36:03.993Z,100966.84
2022-09-12T21:38:33.511Z,100974.94
2022-09-12T21:41:12.110Z,100979.59
2022-09-12T21:43:40.528Z,100972.91
2022-09-12T21:46:08.831Z,100969.53
2022-09-12T21:48:37.448Z,100970.56
2022-09-12T21:51:05.364Z,100979.50
2022-09-12T21:53:33.990Z,100975.97
2022-09-12T21:56:04.732Z,100968.09
2022-09-12T21:58:32.220Z,100960.19
2022-09-12T22:01:00.867Z,100962.84
2022-09-12T22:03:29.582Z,100968.19
2022-09-12T22:06:03.949Z,100977.00
2022-09-12T22:08:33.600Z,100971.69
2022-09-12T22:11:05.059Z,100988.41
2022-09-12T22:13:32.575Z,100985.75
2022-09-12T22:16:02.966Z,100988.34
2022-09-12T22:18:36.545Z,100996.25
2022-09-12T22:21:18.246Z,100995.22
2022-09-12T22:24:04.195Z,100991.00
2022-09-12T22:26:39.022Z,100995.38
2022-09-12T22:29:06.462Z,100996.06
2022-09-12T22:31:33.854Z,100986.19
2022-09-12T22:34:01.291Z,100995.78
2022-09-12T22:36:31.239Z,100981.50
2022-09-12T22:39:00.175Z,100972.47
2022-09-12T22:41:28.390Z,100975.91
2022-09-12T22:43:57.745Z,100962.44
2022-09-12T22:46:25.450Z,100953.53
2022-09-12T22:48:52.874Z,100965.72
2022-09-12T22:51:20.323Z,100967.41
2022-09-12T22:53:47.757Z,100965.63
2022-09-12T22:56:15.662Z,100968.31
2022-09-12T22:58:43.769Z,100968.31
2022-09-12T23:01:11.609Z,100959.44
2022-09-12T23:03:40.057Z,100964.75
2022-09-12T23:06:09.943Z,100952.41
2022-09-12T23:08:39.770Z,100958.50
2022-09-12T23:11:19.016Z,100948.72
2022-09-12T23:13:49.340Z,100954.03
2022-09-12T23:16:24.926Z,100955.78
2022-09-12T23:18:52.735Z,100951.47
2022-09-12T23:21:21.878Z,100951.47
2022-09-12T23:23:50.313Z,100946.25
2022-09-12T23:26:24.808Z,100945.38
2022-09-12T23:28:59.241Z,100936.63
2022-09-12T23:31:30.965Z,100929.59
2022-09-12T23:34:03.634Z,100939.38
2022-09-12T23:36:31.182Z,100933.25
2022-09-12T23:38:58.644Z,100927.06
2022-09-12T23:41:27.192Z,100919.97
2022-09-12T23:43:54.664Z,100912.84
2022-09-12T23:46:22.340Z,100910.19
2022-09-12T23:48:49.929Z,100909.16
2022-09-12T23:51:17.465Z,100907.34
2022-09-12T23:53:44.973Z,100899.38
2022-09-12T23:56:12.398Z,100902.03
2022-09-12T23:58:39.835Z,100903.84
